createdAt,value
2023-05-13T00:01:09.130Z,7.90
2023-05-13T00:03:41.245Z,9.10
2023-05-13T00:06:10.852Z,9.63
2023-05-13T00:08:37.692Z,10.93
2023-05-13T00:11:06.411Z,9.70
2023-05-13T00:13:40.473Z,9.70
2023-05-13T00:16:07.632Z,9.43
2023-05-13T00:18:41.424Z,11.63
2023-05-13T00:21:11.803Z,11.57
2023-05-13T00:23:40.953Z,15.60
2023-05-13T00:26:10.108Z,11.63
2023-05-13T00:28:36.970Z,11.80
2023-05-13T00:31:04.305Z,8.27
2023-05-13T00:33:31.158Z,10.03
2023-05-13T00:35:57.854Z,12.23
2023-05-13T00:38:24.492Z,11.27
2023-05-13T00:40:51.162Z,9.50
2023-05-13T00:43:17.811Z,11.93
2023-05-13T00:45:44.635Z,16.43
2023-05-13T00:48:11.870Z,13.13
2023-05-13T00:50:39.420Z,11.10
2023-05-13T00:53:06.152Z,11.03
2023-05-13T00:55:32.847Z,11.70
2023-05-13T00:58:01.665Z,10.53
2023-05-13T01:00:33.474Z,10.90
2023-05-13T01:03:06.287Z,10.73
2023-05-13T01:05:37.913Z,13.10
2023-05-13T01:08:24.633Z,10.07
2023-05-13T01:10:55.798Z,11.00
2023-05-13T01:13:33.505Z,9.57
2023-05-13T01:16:04.493Z,8.53
2023-05-13T01:18:40.275Z,11.90
2023-05-13T01:21:08.339Z,11.03
2023-05-13T01:23:35.003Z,13.57
2023-05-13T01:26:03.000Z,12.10
2023-05-13T01:28:31.637Z,14.93
2023-05-13T01:30:59.577Z,11.60
2023-05-13T01:33:27.424Z,12.73
2023-05-13T01:35:54.374Z,12.67
2023-05-13T01:38:24.891Z,13.10
2023-05-13T01:40:56.738Z,11.83
2023-05-13T01:43:23.552Z,15.03
2023-05-13T01:45:50.416Z,10.93
2023-05-13T01:48:18.773Z,10.93
2023-05-13T01:50:47.940Z,11.47
2023-05-13T01:53:14.662Z,9.80
2023-05-13T01:55:41.370Z,11.30
2023-05-13T01:58:09.119Z,11.43
2023-05-13T02:00:35.897Z,17.03
2023-05-13T02:03:03.121Z,13.87
2023-05-13T02:05:31.724Z,22.13
2023-05-13T02:07:59.043Z,10.33
2023-05-13T02:10:25.695Z,13.13
2023-05-13T02:12:52.719Z,12.70
2023-05-13T02:15:19.409Z,19.43
2023-05-13T02:17:46.330Z,12.30
2023-05-13T02:20:14.069Z,13.20
2023-05-13T02:22:40.731Z,13.60
2023-05-13T02:25:07.927Z,13.70
2023-05-13T02:27:38.451Z,10.50
2023-05-13T02:30:06.546Z,15.17
2023-05-13T02:32:33.421Z,12.80
2023-05-13T02:35:00.177Z,11.00
2023-05-13T02:37:26.823Z,16.20
2023-05-13T02:40:00.521Z,11.27
2023-05-13T02:42:27.299Z,10.27
2023-05-13T02:44:54.491Z,11.70
2023-05-13T02:47:22.077Z,13.00
2023-05-13T02:49:49.017Z,13.47
2023-05-13T02:52:15.810Z,11.23
2023-05-13T02:54:42.465Z,10.23
2023-05-13T02:57:09.209Z,13.03
2023-05-13T02:59:35.881Z,14.80
2023-05-13T03:02:02.728Z,13.23
2023-05-13T03:04:29.347Z,13.50
2023-05-13T03:06:56.276Z,14.33
2023-05-13T03:09:25.486Z,10.87
2023-05-13T03:11:52.336Z,13.70
2023-05-13T03:14:19.195Z,14.60
2023-05-13T03:16:45.926Z,14.07
2023-05-13T03:19:14.649Z,17.47
2023-05-13T03:21:41.485Z,15.90
2023-05-13T03:24:11.803Z,13.83
2023-05-13T03:26:38.700Z,14.37
2023-05-13T03:29:06.027Z,15.10
2023-05-13T03:31:34.228Z,18.80
2023-05-13T03:34:03.395Z,20.83
2023-05-13T03:36:30.524Z,14.97
2023-05-13T03:38:57.203Z,13.77
2023-05-13T03:41:23.932Z,14.60
2023-05-13T03:43:51.320Z,16.57
2023-05-13T03:46:18.342Z,18.07
2023-05-13T03:48:45.632Z,14.93
2023-05-13T03:51:12.544Z,18.20
2023-05-13T03:53:39.734Z,14.50
2023-05-13T03:56:06.469Z,18.63
2023-05-13T03:58:33.303Z,18.40
2023-05-13T04:01:00.143Z,19.33
2023-05-13T04:03:27.061Z,16.23
2023-05-13T04:05:53.748Z,15.57
2023-05-13T04:08:20.446Z,15.80
2023-05-13T04:10:47.170Z,15.17
2023-05-13T04:13:13.989Z,17.10
2023-05-13T04:15:40.773Z,20.90
2023-05-13T04:18:07.798Z,24.37
2023-05-13T04:20:34.875Z,18.33
2023-05-13T04:23:01.741Z,17.27
2023-05-13T04:25:29.277Z,18.73
2023-05-13T04:27:55.990Z,15.63
2023-05-13T04:30:31.075Z,16.80
2023-05-13T04:32:57.873Z,15.17
2023-05-13T04:35:24.928Z,17.70
2023-05-13T04:37:56.128Z,15.60
2023-05-13T04:40:23.216Z,16.10
2023-05-13T04:42:54.880Z,14.70
2023-05-13T04:45:32.433Z,13.03
2023-05-13T04:48:00.220Z,12.23
2023-05-13T04:50:26.978Z,12.83
2023-05-13T04:52:56.482Z,11.90
2023-05-13T04:55:23.304Z,11.33
2023-05-13T04:57:50.976Z,12.83
2023-05-13T05:00:18.747Z,13.60
2023-05-13T05:02:47.897Z,13.60
2023-05-13T05:05:16.725Z,12.23
2023-05-13T05:07:47.245Z,11.60
2023-05-13T05:10:15.624Z,13.00
2023-05-13T05:12:47.675Z,14.03
2023-05-13T05:15:17.697Z,11.60
2023-05-13T05:17:47.766Z,13.27
2023-05-13T05:20:16.898Z,10.87
2023-05-13T05:22:46.193Z,11.10
2023-05-13T05:25:13.159Z,12.70
2023-05-13T05:27:44.240Z,11.53
2023-05-13T05:30:11.688Z,15.63
2023-05-13T05:32:39.248Z,9.87
2023-05-13T05:35:06.551Z,11.50
2023-05-13T05:37:33.532Z,12.60
2023-05-13T05:40:00.456Z,13.00
2023-05-13T05:42:27.882Z,9.50
2023-05-13T05:44:54.571Z,9.00
2023-05-13T05:47:21.230Z,9.93
2023-05-13T05:49:47.942Z,15.70
2023-05-13T05:52:15.075Z,8.10
2023-05-13T05:54:41.907Z,10.37
2023-05-13T05:57:08.598Z,10.60
2023-05-13T05:59:35.347Z,14.10
2023-05-13T06:02:02.073Z,9.03
2023-05-13T06:04:28.836Z,10.40
2023-05-13T06:06:57.979Z,10.43
2023-05-13T06:09:25.364Z,9.03
2023-05-13T06:11:51.967Z,8.67
2023-05-13T06:14:18.860Z,8.30
2023-05-13T06:16:45.773Z,8.20
2023-05-13T06:19:12.549Z,9.07
2023-05-13T06:21:39.253Z,11.97
2023-05-13T06:24:06.190Z,8.20
2023-05-13T06:26:32.838Z,9.00
2023-05-13T06:29:00.429Z,11.20
2023-05-13T06:31:27.163Z,9.77
2023-05-13T06:33:53.887Z,10.93
2023-05-13T06:36:20.543Z,9.23
2023-05-13T06:38:48.321Z,9.03
2023-05-13T06:41:15.695Z,13.40
2023-05-13T06:43:46.613Z,10.13
2023-05-13T06:46:21.449Z,12.30
2023-05-13T06:48:48.403Z,10.70
2023-05-13T06:51:15.126Z,9.13
2023-05-13T06:53:41.973Z,11.30
2023-05-13T06:56:08.906Z,14.77
2023-05-13T06:58:35.686Z,12.77
2023-05-13T07:01:03.450Z,9.10
2023-05-13T07:03:31.051Z,10.80
2023-05-13T07:05:58.223Z,12.10
2023-05-13T07:08:25.226Z,9.60
2023-05-13T07:10:51.914Z,11.20
2023-05-13T07:13:19.538Z,12.03
2023-05-13T07:15:47.397Z,10.97
2023-05-13T07:18:14.862Z,11.67
2023-05-13T07:20:41.578Z,11.70
2023-05-13T07:23:08.375Z,11.80
2023-05-13T07:25:34.995Z,16.50
2023-05-13T07:28:01.791Z,11.10
2023-05-13T07:30:28.738Z,12.60
2023-05-13T07:32:57.753Z,9.93
2023-05-13T07:35:24.729Z,12.00
2023-05-13T07:37:51.606Z,15.93
2023-05-13T07:40:18.677Z,9.30
2023-05-13T07:42:45.402Z,12.90
2023-05-13T07:45:13.997Z,12.87
2023-05-13T07:47:44.682Z,11.37
2023-05-13T07:50:12.094Z,12.27
2023-05-13T07:52:39.083Z,9.90
2023-05-13T07:55:06.925Z,17.40
2023-05-13T07:57:33.873Z,9.90
2023-05-13T08:00:00.642Z,9.70
2023-05-13T08:02:27.769Z,10.97
2023-05-13T08:04:54.621Z,11.70
2023-05-13T08:07:21.427Z,9.47
2023-05-13T08:09:48.312Z,11.00
2023-05-13T08:12:15.185Z,13.50
2023-05-13T08:14:42.046Z,13.70
2023-05-13T08:17:09.106Z,9.37
2023-05-13T08:19:36.204Z,13.90
2023-05-13T08:22:06.100Z,7.77
2023-05-13T08:24:43.306Z,11.23
2023-05-13T08:27:18.484Z,11.57
2023-05-13T08:29:45.580Z,10.60
2023-05-13T08:32:12.737Z,11.87
2023-05-13T08:34:40.194Z,8.30
2023-05-13T08:37:06.885Z,12.97
2023-05-13T08:39:34.616Z,13.43
2023-05-13T08:42:03.591Z,11.80
2023-05-13T08:44:32.394Z,11.80
2023-05-13T08:47:25.277Z,10.07
2023-05-13T08:49:52.488Z,10.60
2023-05-13T08:52:20.986Z,10.87
2023-05-13T08:54:48.005Z,9.70
2023-05-13T08:57:14.757Z,11.20
2023-05-13T08:59:41.658Z,9.97
2023-05-13T09:02:10.353Z,12.27
2023-05-13T09:04:38.842Z,12.93
2023-05-13T09:07:05.909Z,15.03
2023-05-13T09:09:32.732Z,12.13
2023-05-13T09:12:00.924Z,16.17
2023-05-13T09:14:32.188Z,9.17
2023-05-13T09:16:59.167Z,9.33
2023-05-13T09:19:25.983Z,12.00
2023-05-13T09:21:53.356Z,14.50
2023-05-13T09:24:22.427Z,10.10
2023-05-13T09:26:50.889Z,11.43
2023-05-13T09:29:25.743Z,7.57
2023-05-13T09:31:58.122Z,9.10
2023-05-13T09:34:29.961Z,10.73
2023-05-13T09:37:02.117Z,9.73
2023-05-13T09:39:30.214Z,10.20
2023-05-13T09:41:58.357Z,12.10
2023-05-13T09:44:25.198Z,13.70
2023-05-13T09:46:56.781Z,10.57
2023-05-13T09:49:27.225Z,14.83
2023-05-13T09:51:53.935Z,11.23
2023-05-13T09:54:20.839Z,15.33
2023-05-13T09:56:49.166Z,10.03
2023-05-13T09:59:16.643Z,11.10
2023-05-13T10:01:44.031Z,9.10
2023-05-13T10:04:11.588Z,11.03
2023-05-13T10:06:46.421Z,9.57
2023-05-13T10:09:13.801Z,10.57
2023-05-13T10:11:41.297Z,12.63
2023-05-13T10:14:08.005Z,9.63
2023-05-13T10:16:35.138Z,9.10
2023-05-13T10:19:03.477Z,7.33
2023-05-13T10:21:31.290Z,8.60
2023-05-13T10:23:58.665Z,9.83
2023-05-13T10:26:38.764Z,8.33
2023-05-13T10:29:05.877Z,13.90
2023-05-13T10:31:35.760Z,9.67
2023-05-13T10:34:03.112Z,9.20
2023-05-13T10:36:42.906Z,11.43
2023-05-13T10:39:35.036Z,12.40
2023-05-13T10:42:20.551Z,8.40
2023-05-13T10:44:47.266Z,11.10
2023-05-13T10:47:17.536Z,9.30
2023-05-13T10:49:52.027Z,8.20
2023-05-13T10:52:19.583Z,14.80
2023-05-13T10:55:01.439Z,11.77
2023-05-13T10:57:38.041Z,14.83
2023-05-13T11:00:20.776Z,10.13
2023-05-13T11:02:51.929Z,10.73
2023-05-13T11:05:22.488Z,10.90
2023-05-13T11:07:59.142Z,12.60
2023-05-13T11:10:32.863Z,9.80
2023-05-13T11:13:21.646Z,18.87
2023-05-13T11:15:52.406Z,10.23
2023-05-13T11:18:20.960Z,12.43
2023-05-13T11:20:53.699Z,10.37
2023-05-13T11:23:21.197Z,10.67
2023-05-13T11:26:16.207Z,14.43
2023-05-13T11:29:08.438Z,9.30
2023-05-13T11:31:49.212Z,17.93
2023-05-13T11:34:20.269Z,9.60
2023-05-13T11:36:50.735Z,9.30
2023-05-13T11:39:22.726Z,12.57
2023-05-13T11:41:53.964Z,11.10
2023-05-13T11:44:34.413Z,11.50
2023-05-13T11:47:06.365Z,9.07
2023-05-13T11:49:42.256Z,7.40
2023-05-13T11:52:14.049Z,6.87
2023-05-13T11:54:49.034Z,10.80
2023-05-13T11:57:18.745Z,9.83
2023-05-13T11:59:56.209Z,7.57
2023-05-13T12:02:31.917Z,7.47
2023-05-13T12:05:08.050Z,8.67
2023-05-13T12:07:36.183Z,8.53
2023-05-13T12:10:07.132Z,8.27
2023-05-13T12:12:40.686Z,7.40
2023-05-13T12:15:19.893Z,13.50
2023-05-13T12:17:47.345Z,9.63
2023-05-13T12:20:21.255Z,8.43
2023-05-13T12:22:48.806Z,8.03
2023-05-13T12:25:47.052Z,12.80
2023-05-13T12:28:22.140Z,6.77
2023-05-13T12:30:58.337Z,7.13
2023-05-13T12:33:31.208Z,6.70
2023-05-13T12:36:26.252Z,7.40
2023-05-13T12:39:13.006Z,10.90
2023-05-13T12:41:41.564Z,9.07
2023-05-13T12:44:10.413Z,12.63
2023-05-13T12:46:39.757Z,10.63
2023-05-13T12:49:10.671Z,9.57
2023-05-13T12:51:37.816Z,10.00
2023-05-13T12:54:04.550Z,9.73
2023-05-13T12:56:32.590Z,9.07
2023-05-13T12:59:00.007Z,6.43
2023-05-13T13:01:27.399Z,8.37
2023-05-13T13:03:54.280Z,7.93
2023-05-13T13:06:21.335Z,8.00
2023-05-13T13:08:48.679Z,9.73
2023-05-13T13:11:18.728Z,8.40
2023-05-13T13:13:46.651Z,6.63
2023-05-13T13:16:13.660Z,9.00
2023-05-13T13:18:42.268Z,9.70
2023-05-13T13:21:13.451Z,8.37
2023-05-13T13:23:40.498Z,9.30
2023-05-13T13:26:07.387Z,7.07
2023-05-13T13:28:35.713Z,5.70
2023-05-13T13:31:06.176Z,8.60
2023-05-13T13:33:33.264Z,8.73
2023-05-13T13:36:00.102Z,10.00
2023-05-13T13:38:27.798Z,5.60
2023-05-13T13:40:55.228Z,5.40
2023-05-13T13:43:22.420Z,6.33
2023-05-13T13:45:49.285Z,9.33
2023-05-13T13:48:15.926Z,5.87
2023-05-13T13:50:42.606Z,8.97
2023-05-13T13:53:09.188Z,7.40
2023-05-13T13:55:36.821Z,8.03
2023-05-13T13:58:04.589Z,5.93
2023-05-13T14:00:31.620Z,8.63
2023-05-13T14:02:58.568Z,6.63
2023-05-13T14:05:25.426Z,7.10
2023-05-13T14:07:54.102Z,7.73
2023-05-13T14:10:21.687Z,11.23
2023-05-13T14:12:51.972Z,8.30
2023-05-13T14:15:18.636Z,6.80
2023-05-13T14:17:45.277Z,6.03
2023-05-13T14:20:12.517Z,8.43
2023-05-13T14:22:40.155Z,7.43
2023-05-13T14:25:12.547Z,7.40
2023-05-13T14:27:51.511Z,8.10
2023-05-13T14:30:18.228Z,6.37
2023-05-13T14:32:45.478Z,8.00
2023-05-13T14:35:13.894Z,15.03
2023-05-13T14:37:43.089Z,7.40
2023-05-13T14:40:13.270Z,7.20
2023-05-13T14:42:40.998Z,7.43
2023-05-13T14:45:11.172Z,8.60
2023-05-13T14:47:50.369Z,7.80
2023-05-13T14:50:26.412Z,9.53
2023-05-13T14:52:55.962Z,13.50
2023-05-13T14:55:22.870Z,7.73
2023-05-13T14:57:57.149Z,6.20
2023-05-13T15:00:23.936Z,10.07
2023-05-13T15:02:50.819Z,7.63
2023-05-13T15:05:17.574Z,9.23
2023-05-13T15:07:44.648Z,9.50
2023-05-13T15:10:11.984Z,8.10
2023-05-13T15:12:39.233Z,13.43
2023-05-13T15:15:11.635Z,8.30
2023-05-13T15:17:38.938Z,7.83
2023-05-13T15:20:06.548Z,7.17
2023-05-13T15:22:34.257Z,8.60
2023-05-13T15:25:03.929Z,5.57
2023-05-13T15:27:31.221Z,12.23
2023-05-13T15:30:00.334Z,5.50
2023-05-13T15:32:34.704Z,6.27
2023-05-13T15:35:08.511Z,7.10
2023-05-13T15:37:39.989Z,6.70
2023-05-13T15:42:51.039Z,5.63
2023-05-13T15:45:20.062Z,7.00
2023-05-13T15:47:58.307Z,6.00
2023-05-13T15:50:33.312Z,8.53
2023-05-13T15:53:16.173Z,10.93
2023-05-13T15:55:58.707Z,7.30
2023-05-13T15:58:30.032Z,5.77
2023-05-13T16:08:49.011Z,6.30
2023-05-13T16:12:03.215Z,11.67
2023-05-13T16:14:52.907Z,8.80
2023-05-13T16:21:26.263Z,14.53
2023-05-13T16:28:53.752Z,8.97
2023-05-13T16:31:49.336Z,19.70
2023-05-13T16:34:58.811Z,9.13
2023-05-13T16:37:55.923Z,9.10
2023-05-13T16:40:36.502Z,8.50
2023-05-13T16:43:33.210Z,6.47
2023-05-13T16:46:00.203Z,6.97
2023-05-13T16:48:50.018Z,8.20
2023-05-13T16:51:22.323Z,4.53
2023-05-13T16:54:03.936Z,5.33
2023-05-13T16:56:37.362Z,5.67
2023-05-13T16:59:14.422Z,5.67
2023-05-13T17:01:41.187Z,6.67
2023-05-13T17:04:21.199Z,5.37
2023-05-13T17:09:34.791Z,5.87
2023-05-13T17:12:05.041Z,6.13
2023-05-13T17:14:36.890Z,5.33
2023-05-13T17:17:06.870Z,5.77
2023-05-13T17:19:33.817Z,5.10
2023-05-13T17:22:03.019Z,4.37
2023-05-13T17:24:30.102Z,6.47
2023-05-13T17:27:00.133Z,4.40
2023-05-13T17:29:27.504Z,6.63
2023-05-13T17:31:54.578Z,6.50
2023-05-13T17:34:21.809Z,5.30
2023-05-13T17:44:06.256Z,5.50
2023-05-13T17:47:05.799Z,6.57
2023-05-13T17:49:33.867Z,5.70
2023-05-13T17:52:13.240Z,4.40
2023-05-13T17:54:53.661Z,6.67
2023-05-13T17:57:53.995Z,10.20
2023-05-13T18:00:35.256Z,6.60
2023-05-13T18:03:22.586Z,8.53
2023-05-13T18:07:01.661Z,4.10
2023-05-13T18:13:01.979Z,5.27
2023-05-13T18:15:35.094Z,4.53
2023-05-13T18:18:21.658Z,5.80
2023-05-13T18:20:51.000Z,6.90
2023-05-13T18:23:27.059Z,8.77
2023-05-13T18:26:02.551Z,4.83
2023-05-13T18:28:31.015Z,6.60
2023-05-13T18:31:19.511Z,4.40
2023-05-13T18:33:52.565Z,4.70
2023-05-13T18:36:21.976Z,6.97
2023-05-13T18:38:51.773Z,5.00
2023-05-13T18:41:22.409Z,4.80
2023-05-13T18:43:51.166Z,7.60
2023-05-13T18:46:18.109Z,6.47
2023-05-13T18:48:45.443Z,9.27
2023-05-13T18:51:12.406Z,7.00
2023-05-13T18:53:40.454Z,9.70
2023-05-13T18:56:07.622Z,9.77
2023-05-13T18:58:34.444Z,6.33
2023-05-13T19:01:03.142Z,6.70
2023-05-13T19:03:30.902Z,8.80
2023-05-13T19:05:57.814Z,5.13
2023-05-13T19:08:25.143Z,5.10
2023-05-13T19:10:52.603Z,5.20
2023-05-13T19:13:30.712Z,9.57
2023-05-13T19:16:07.779Z,8.23
2023-05-13T19:18:36.926Z,6.70
2023-05-13T19:21:03.790Z,5.00
2023-05-13T19:23:31.041Z,5.07
2023-05-13T19:25:58.197Z,9.67
2023-05-13T19:28:26.756Z,9.00
2023-05-13T19:30:54.027Z,11.97
2023-05-13T19:33:20.814Z,9.30
2023-05-13T19:35:50.013Z,4.50
2023-05-13T19:38:16.885Z,6.97
2023-05-13T19:40:45.252Z,8.53
2023-05-13T19:43:12.023Z,6.00
2023-05-13T19:45:38.795Z,6.70
2023-05-13T19:48:06.252Z,7.27
2023-05-13T19:50:36.904Z,10.67
2023-05-13T19:53:06.960Z,5.40
2023-05-13T19:55:35.125Z,8.63
2023-05-13T19:58:01.883Z,11.27
2023-05-13T20:00:28.830Z,7.07
2023-05-13T20:02:56.606Z,9.10
2023-05-13T20:05:23.387Z,6.53
2023-05-13T20:07:50.269Z,7.00
2023-05-13T20:10:19.308Z,7.67
2023-05-13T20:12:46.192Z,5.60
2023-05-13T20:15:13.009Z,9.10
2023-05-13T20:17:42.562Z,8.13
2023-05-13T20:20:09.722Z,7.83
2023-05-13T20:22:36.569Z,6.23
2023-05-13T20:25:04.164Z,4.50
2023-05-13T20:27:33.495Z,5.10
2023-05-13T20:30:01.222Z,4.93
2023-05-13T20:32:28.283Z,13.57
2023-05-13T20:34:55.549Z,6.33
2023-05-13T20:37:24.942Z,4.97
2023-05-13T20:39:51.916Z,6.03
2023-05-13T20:42:21.542Z,4.90
2023-05-13T20:44:48.976Z,8.57
2023-05-13T20:47:16.764Z,5.17
2023-05-13T20:49:43.959Z,4.87
2023-05-13T20:52:18.255Z,6.27
2023-05-13T20:54:44.997Z,9.33
2023-05-13T20:57:11.652Z,7.93
2023-05-13T20:59:38.370Z,5.10
2023-05-13T21:02:05.344Z,4.37
2023-05-13T21:04:32.127Z,5.03
2023-05-13T21:06:58.836Z,4.77
2023-05-13T21:09:25.571Z,6.83
2023-05-13T21:11:52.768Z,6.83
2023-05-13T21:14:20.482Z,7.40
2023-05-13T21:16:47.293Z,7.30
2023-05-13T21:19:24.182Z,12.17
2023-05-13T21:21:51.327Z,7.77
2023-05-13T21:24:19.013Z,8.00
2023-05-13T21:26:46.420Z,6.00
2023-05-13T21:29:13.144Z,7.73
2023-05-13T21:31:39.871Z,14.17
2023-05-13T21:34:06.655Z,8.30
2023-05-13T21:36:33.926Z,5.67
2023-05-13T21:39:00.748Z,9.20
2023-05-13T21:41:27.439Z,7.27
2023-05-13T21:43:54.065Z,8.70
2023-05-13T21:46:20.778Z,6.03
2023-05-13T21:48:47.981Z,5.17
2023-05-13T21:51:16.913Z,7.30
2023-05-13T21:53:43.627Z,5.30
2023-05-13T21:56:10.250Z,11.40
2023-05-13T21:58:36.850Z,7.37
2023-05-13T22:01:03.577Z,5.53
2023-05-13T22:03:30.394Z,12.57
2023-05-13T22:05:57.674Z,5.40
2023-05-13T22:08:24.559Z,6.00
2023-05-13T22:10:54.125Z,5.47
2023-05-13T22:13:25.727Z,6.40
2023-05-13T22:15:54.974Z,7.03
2023-05-13T22:18:23.726Z,7.67
2023-05-13T22:20:51.278Z,8.90
2023-05-13T22:23:19.016Z,5.80
2023-05-13T22:25:49.274Z,6.50
2023-05-13T22:28:15.933Z,8.93
2023-05-13T22:30:44.619Z,6.73
2023-05-13T22:33:12.690Z,5.67
2023-05-13T22:35:41.110Z,7.70
2023-05-13T22:38:10.786Z,6.83
2023-05-13T22:40:38.363Z,8.90
2023-05-13T22:43:05.868Z,7.63
2023-05-13T22:45:32.729Z,10.00
2023-05-13T22:48:03.163Z,7.50
2023-05-13T22:50:33.436Z,4.97
2023-05-13T22:53:02.937Z,7.63
2023-05-13T22:55:32.342Z,10.80
2023-05-13T22:58:07.479Z,7.00
2023-05-13T23:00:40.296Z,7.00
2023-05-13T23:03:10.102Z,6.13
2023-05-13T23:05:40.407Z,7.30
2023-05-13T23:08:07.366Z,9.03
2023-05-13T23:10:34.128Z,5.73
2023-05-13T23:13:00.872Z,9.43
2023-05-13T23:15:27.673Z,6.50
2023-05-13T23:17:54.338Z,8.47
2023-05-13T23:20:21.236Z,12.80
2023-05-13T23:22:48.146Z,8.13
2023-05-13T23:25:14.762Z,6.33
2023-05-13T23:27:41.440Z,5.67
2023-05-13T23:30:08.782Z,7.70
2023-05-13T23:32:35.456Z,7.40
2023-05-13T23:35:02.353Z,7.07
2023-05-13T23:37:29.574Z,6.40
2023-05-13T23:39:56.606Z,7.87
2023-05-13T23:42:24.032Z,7.90
2023-05-13T23:44:52.825Z,5.80
2023-05-13T23:47:19.697Z,6.40
2023-05-13T23:49:46.387Z,8.10
2023-05-13T23:52:16.337Z,15.47
2023-05-13T23:54:43.067Z,9.10
2023-05-13T23:57:10.422Z,6.10
2023-05-13T23:59:37.233Z,7.67
